sensor_id;sensor_type;location;lat;lon;timestamp;P1;durP1;ratioP1;P2;durP2;ratioP2
68229;SDS011;55048;52.220;5.160;2022-07-06T00:01:26;5.68;;;0.60;;
68229;SDS011;55048;52.220;5.160;2022-07-06T00:03:52;2.40;;;0.50;;
68229;SDS011;55048;52.220;5.160;2022-07-06T00:06:17;2.15;;;0.55;;
68229;SDS011;55048;52.220;5.160;2022-07-06T00:08:43;3.60;;;0.40;;
68229;SDS011;55048;52.220;5.160;2022-07-06T00:11:09;3.33;;;0.50;;
68229;SDS011;55048;52.220;5.160;2022-07-06T00:13:34;3.33;;;0.60;;
68229;SDS011;55048;52.220;5.160;2022-07-06T00:16:00;1.17;;;0.43;;
68229;SDS011;55048;52.220;5.160;2022-07-06T00:18:26;7.25;;;0.47;;
68229;SDS011;55048;52.220;5.160;2022-07-06T00:20:51;5.85;;;0.50;;
68229;SDS011;55048;52.220;5.160;2022-07-06T00:23:17;0.77;;;0.30;;
68229;SDS011;55048;52.220;5.160;2022-07-06T00:25:42;2.90;;;0.50;;
68229;SDS011;55048;52.220;5.160;2022-07-06T00:28:07;5.88;;;0.50;;
68229;SDS011;55048;52.220;5.160;2022-07-06T00:30:33;3.10;;;0.50;;
68229;SDS011;55048;52.220;5.160;2022-07-06T00:32:59;2.03;;;0.40;;
68229;SDS011;55048;52.220;5.160;2022-07-06T00:35:24;4.32;;;0.50;;
68229;SDS011;55048;52.220;5.160;2022-07-06T00:37:50;4.18;;;0.57;;
68229;SDS011;55048;52.220;5.160;2022-07-06T00:40:16;2.55;;;0.50;;
68229;SDS011;55048;52.220;5.160;2022-07-06T00:42:42;5.72;;;0.50;;
68229;SDS011;55048;52.220;5.160;2022-07-06T00:45:09;1.25;;;0.50;;
68229;SDS011;55048;52.220;5.160;2022-07-06T00:47:36;2.30;;;0.50;;
68229;SDS011;55048;52.220;5.160;2022-07-06T00:50:02;5.57;;;0.40;;
68229;SDS011;55048;52.220;5.160;2022-07-06T00:55:27;2.83;;;0.40;;
68229;SDS011;55048;52.220;5.160;2022-07-06T00:57:54;3.85;;;0.40;;
68229;SDS011;55048;52.220;5.160;2022-07-06T01:00:23;2.17;;;0.50;;
68229;SDS011;55048;52.220;5.160;2022-07-06T01:02:50;2.38;;;0.45;;
68229;SDS011;55048;52.220;5.160;2022-07-06T01:05:16;1.45;;;0.40;;
68229;SDS011;55048;52.220;5.160;2022-07-06T01:07:43;2.83;;;0.57;;
68229;SDS011;55048;52.220;5.160;2022-07-06T01:10:09;4.68;;;0.65;;
68229;SDS011;55048;52.220;5.160;2022-07-06T01:12:37;1.67;;;0.30;;
68229;SDS011;55048;52.220;5.160;2022-07-06T01:15:05;2.13;;;0.50;;
68229;SDS011;55048;52.220;5.160;2022-07-06T01:17:39;1.40;;;0.30;;
68229;SDS011;55048;52.220;5.160;2022-07-06T01:22:40;1.00;;;0.50;;
68229;SDS011;55048;52.220;5.160;2022-07-06T01:25:06;0.77;;;0.30;;
68229;SDS011;55048;52.220;5.160;2022-07-06T01:27:35;3.05;;;0.50;;
68229;SDS011;55048;52.220;5.160;2022-07-06T01:30:04;5.05;;;0.43;;
68229;SDS011;55048;52.220;5.160;2022-07-06T01:32:31;2.10;;;0.50;;
68229;SDS011;55048;52.220;5.160;2022-07-06T01:34:56;3.22;;;0.50;;
68229;SDS011;55048;52.220;5.160;2022-07-06T01:37:22;3.17;;;0.55;;
68229;SDS011;55048;52.220;5.160;2022-07-06T01:39:47;1.00;;;0.40;;
68229;SDS011;55048;52.220;5.160;2022-07-06T01:42:12;1.15;;;0.40;;
68229;SDS011;55048;52.220;5.160;2022-07-06T01:44:39;1.35;;;0.50;;
68229;SDS011;55048;52.220;5.160;2022-07-06T01:47:04;6.05;;;0.70;;
68229;SDS011;55048;52.220;5.160;2022-07-06T01:49:30;2.55;;;0.50;;
68229;SDS011;55048;52.220;5.160;2022-07-06T01:51:55;1.83;;;0.40;;
68229;SDS011;55048;52.220;5.160;2022-07-06T01:54:21;2.30;;;0.40;;
68229;SDS011;55048;52.220;5.160;2022-07-06T01:56:47;2.55;;;0.50;;
68229;SDS011;55048;52.220;5.160;2022-07-06T01:59:12;2.53;;;0.40;;
68229;SDS011;55048;52.220;5.160;2022-07-06T02:01:38;1.20;;;0.40;;
68229;SDS011;55048;52.220;5.160;2022-07-06T02:04:03;2.28;;;0.40;;
68229;SDS011;55048;52.220;5.160;2022-07-06T02:06:29;3.15;;;0.50;;
68229;SDS011;55048;52.220;5.160;2022-07-06T02:08:55;2.50;;;0.40;;
68229;SDS011;55048;52.220;5.160;2022-07-06T02:11:20;2.28;;;0.50;;
68229;SDS011;55048;52.220;5.160;2022-07-06T02:13:46;3.55;;;0.40;;
68229;SDS011;55048;52.220;5.160;2022-07-06T02:16:11;3.10;;;0.50;;
68229;SDS011;55048;52.220;5.160;2022-07-06T02:18:36;1.27;;;0.40;;
68229;SDS011;55048;52.220;5.160;2022-07-06T02:21:04;4.05;;;0.60;;
68229;SDS011;55048;52.220;5.160;2022-07-06T02:23:30;2.22;;;0.40;;
68229;SDS011;55048;52.220;5.160;2022-07-06T02:25:56;1.80;;;0.40;;
68229;SDS011;55048;52.220;5.160;2022-07-06T02:28:23;2.42;;;0.40;;
68229;SDS011;55048;52.220;5.160;2022-07-06T02:30:48;4.03;;;0.50;;
68229;SDS011;55048;52.220;5.160;2022-07-06T02:33:14;6.38;;;0.45;;
68229;SDS011;55048;52.220;5.160;2022-07-06T02:35:39;0.52;;;0.30;;
68229;SDS011;55048;52.220;5.160;2022-07-06T02:38:08;3.05;;;0.40;;
68229;SDS011;55048;52.220;5.160;2022-07-06T02:40:34;2.88;;;0.57;;
68229;SDS011;55048;52.220;5.160;2022-07-06T02:43:00;2.13;;;0.40;;
68229;SDS011;55048;52.220;5.160;2022-07-06T02:45:26;7.65;;;0.50;;
68229;SDS011;55048;52.220;5.160;2022-07-06T02:47:52;0.93;;;0.40;;
68229;SDS011;55048;52.220;5.160;2022-07-06T02:50:20;4.00;;;0.40;;
68229;SDS011;55048;52.220;5.160;2022-07-06T02:52:46;5.35;;;0.50;;
68229;SDS011;55048;52.220;5.160;2022-07-06T02:55:11;3.67;;;0.40;;
68229;SDS011;55048;52.220;5.160;2022-07-06T02:57:37;3.70;;;0.50;;
68229;SDS011;55048;52.220;5.160;2022-07-06T03:00:03;4.15;;;0.35;;
68229;SDS011;55048;52.220;5.160;2022-07-06T03:02:30;4.10;;;0.43;;
68229;SDS011;55048;52.220;5.160;2022-07-06T03:04:57;2.08;;;0.30;;
68229;SDS011;55048;52.220;5.160;2022-07-06T03:07:22;4.82;;;0.40;;
68229;SDS011;55048;52.220;5.160;2022-07-06T03:09:48;4.07;;;0.38;;
68229;SDS011;55048;52.220;5.160;2022-07-06T03:12:15;3.25;;;0.40;;
68229;SDS011;55048;52.220;5.160;2022-07-06T03:14:41;2.80;;;0.40;;
68229;SDS011;55048;52.220;5.160;2022-07-06T03:17:08;1.17;;;0.28;;
68229;SDS011;55048;52.220;5.160;2022-07-06T03:19:33;1.70;;;0.40;;
68229;SDS011;55048;52.220;5.160;2022-07-06T03:21:59;2.70;;;0.43;;
68229;SDS011;55048;52.220;5.160;2022-07-06T03:24:24;1.90;;;0.38;;
68229;SDS011;55048;52.220;5.160;2022-07-06T03:26:50;0.70;;;0.28;;
68229;SDS011;55048;52.220;5.160;2022-07-06T03:29:16;3.85;;;0.30;;
68229;SDS011;55048;52.220;5.160;2022-07-06T03:31:41;1.48;;;0.40;;
68229;SDS011;55048;52.220;5.160;2022-07-06T03:34:07;3.45;;;0.40;;
68229;SDS011;55048;52.220;5.160;2022-07-06T03:36:33;1.63;;;0.30;;
68229;SDS011;55048;52.220;5.160;2022-07-06T03:38:59;4.38;;;0.32;;
68229;SDS011;55048;52.220;5.160;2022-07-06T03:41:24;1.15;;;0.20;;
68229;SDS011;55048;52.220;5.160;2022-07-06T03:43:50;4.97;;;0.43;;
68229;SDS011;55048;52.220;5.160;2022-07-06T03:46:15;5.43;;;0.32;;
68229;SDS011;55048;52.220;5.160;2022-07-06T03:48:41;1.50;;;0.30;;
68229;SDS011;55048;52.220;5.160;2022-07-06T03:51:07;3.80;;;0.30;;
68229;SDS011;55048;52.220;5.160;2022-07-06T03:53:32;3.47;;;0.50;;
68229;SDS011;55048;52.220;5.160;2022-07-06T03:55:58;1.98;;;0.40;;
68229;SDS011;55048;52.220;5.160;2022-07-06T03:58:43;3.30;;;0.50;;
68229;SDS011;55048;52.220;5.160;2022-07-06T04:01:08;1.70;;;0.50;;
68229;SDS011;55048;52.220;5.160;2022-07-06T04:03:34;2.15;;;0.35;;
68229;SDS011;55048;52.220;5.160;2022-07-06T04:06:00;2.47;;;0.30;;
68229;SDS011;55048;52.220;5.160;2022-07-06T04:08:25;5.38;;;0.40;;
68229;SDS011;55048;52.220;5.160;2022-07-06T04:10:55;2.08;;;0.32;;
68229;SDS011;55048;52.220;5.160;2022-07-06T04:13:21;3.55;;;0.50;;
68229;SDS011;55048;52.220;5.160;2022-07-06T04:15:46;2.10;;;0.43;;
68229;SDS011;55048;52.220;5.160;2022-07-06T04:18:12;2.97;;;0.40;;
68229;SDS011;55048;52.220;5.160;2022-07-06T04:20:45;0.85;;;0.30;;
68229;SDS011;55048;52.220;5.160;2022-07-06T04:23:10;6.32;;;0.50;;
68229;SDS011;55048;52.220;5.160;2022-07-06T04:25:36;0.85;;;0.30;;
68229;SDS011;55048;52.220;5.160;2022-07-06T04:28:02;1.83;;;0.40;;
68229;SDS011;55048;52.220;5.160;2022-07-06T04:30:30;3.70;;;0.40;;
68229;SDS011;55048;52.220;5.160;2022-07-06T04:32:55;2.90;;;0.40;;
68229;SDS011;55048;52.220;5.160;2022-07-06T04:35:23;5.32;;;0.30;;
68229;SDS011;55048;52.220;5.160;2022-07-06T04:37:50;2.78;;;0.40;;
68229;SDS011;55048;52.220;5.160;2022-07-06T04:40:18;4.10;;;0.40;;
68229;SDS011;55048;52.220;5.160;2022-07-06T04:42:45;1.40;;;0.40;;
68229;SDS011;55048;52.220;5.160;2022-07-06T04:45:12;1.80;;;0.30;;
68229;SDS011;55048;52.220;5.160;2022-07-06T04:47:37;3.05;;;0.22;;
68229;SDS011;55048;52.220;5.160;2022-07-06T04:50:04;4.43;;;0.30;;
68229;SDS011;55048;52.220;5.160;2022-07-06T04:52:30;3.50;;;0.30;;
68229;SDS011;55048;52.220;5.160;2022-07-06T04:54:55;2.67;;;0.40;;
68229;SDS011;55048;52.220;5.160;2022-07-06T04:57:21;2.20;;;0.45;;
68229;SDS011;55048;52.220;5.160;2022-07-06T04:59:47;1.50;;;0.40;;
68229;SDS011;55048;52.220;5.160;2022-07-06T05:02:12;4.53;;;0.50;;
68229;SDS011;55048;52.220;5.160;2022-07-06T05:04:38;3.38;;;0.30;;
68229;SDS011;55048;52.220;5.160;2022-07-06T05:07:03;1.50;;;0.50;;
68229;SDS011;55048;52.220;5.160;2022-07-06T05:09:29;3.22;;;0.50;;
68229;SDS011;55048;52.220;5.160;2022-07-06T05:11:55;1.77;;;0.40;;
68229;SDS011;55048;52.220;5.160;2022-07-06T05:14:21;3.30;;;0.47;;
68229;SDS011;55048;52.220;5.160;2022-07-06T05:16:46;2.53;;;0.30;;
68229;SDS011;55048;52.220;5.160;2022-07-06T05:19:12;1.40;;;0.35;;
68229;SDS011;55048;52.220;5.160;2022-07-06T05:21:37;2.15;;;0.30;;
68229;SDS011;55048;52.220;5.160;2022-07-06T05:24:04;2.55;;;0.30;;
68229;SDS011;55048;52.220;5.160;2022-07-06T05:26:30;2.63;;;0.30;;
68229;SDS011;55048;52.220;5.160;2022-07-06T05:28:56;1.02;;;0.20;;
68229;SDS011;55048;52.220;5.160;2022-07-06T05:31:22;2.70;;;0.43;;
68229;SDS011;55048;52.220;5.160;2022-07-06T05:33:48;2.28;;;0.30;;
68229;SDS011;55048;52.220;5.160;2022-07-06T05:36:13;2.90;;;0.40;;
68229;SDS011;55048;52.220;5.160;2022-07-06T05:38:38;2.90;;;0.32;;
68229;SDS011;55048;52.220;5.160;2022-07-06T05:41:04;1.48;;;0.32;;
68229;SDS011;55048;52.220;5.160;2022-07-06T05:43:31;2.65;;;0.30;;
68229;SDS011;55048;52.220;5.160;2022-07-06T05:45:58;3.65;;;0.40;;
68229;SDS011;55048;52.220;5.160;2022-07-06T05:48:27;2.97;;;0.30;;
68229;SDS011;55048;52.220;5.160;2022-07-06T05:51:12;2.10;;;0.20;;
68229;SDS011;55048;52.220;5.160;2022-07-06T05:53:40;2.22;;;0.30;;
68229;SDS011;55048;52.220;5.160;2022-07-06T05:56:05;4.15;;;0.40;;
68229;SDS011;55048;52.220;5.160;2022-07-06T05:58:32;5.15;;;0.30;;
68229;SDS011;55048;52.220;5.160;2022-07-06T06:00:58;2.30;;;0.30;;
68229;SDS011;55048;52.220;5.160;2022-07-06T06:03:24;4.93;;;0.30;;
68229;SDS011;55048;52.220;5.160;2022-07-06T06:05:49;2.90;;;0.35;;
68229;SDS011;55048;52.220;5.160;2022-07-06T06:08:17;2.88;;;0.30;;
68229;SDS011;55048;52.220;5.160;2022-07-06T06:10:42;3.13;;;0.20;;
68229;SDS011;55048;52.220;5.160;2022-07-06T06:13:11;4.97;;;0.30;;
68229;SDS011;55048;52.220;5.160;2022-07-06T06:15:37;2.30;;;0.30;;
68229;SDS011;55048;52.220;5.160;2022-07-06T06:18:03;3.50;;;0.30;;
68229;SDS011;55048;52.220;5.160;2022-07-06T06:20:29;1.88;;;0.20;;
68229;SDS011;55048;52.220;5.160;2022-07-06T06:22:56;1.33;;;0.20;;
68229;SDS011;55048;52.220;5.160;2022-07-06T06:25:29;1.90;;;0.30;;
68229;SDS011;55048;52.220;5.160;2022-07-06T06:27:57;3.70;;;0.47;;
68229;SDS011;55048;52.220;5.160;2022-07-06T06:30:23;6.53;;;0.38;;
68229;SDS011;55048;52.220;5.160;2022-07-06T06:32:49;4.80;;;0.40;;
68229;SDS011;55048;52.220;5.160;2022-07-06T06:35:15;9.98;;;0.50;;
68229;SDS011;55048;52.220;5.160;2022-07-06T06:37:40;2.42;;;0.22;;
68229;SDS011;55048;52.220;5.160;2022-07-06T06:40:07;2.90;;;0.40;;
68229;SDS011;55048;52.220;5.160;2022-07-06T06:42:35;2.88;;;0.40;;
68229;SDS011;55048;52.220;5.160;2022-07-06T06:45:05;4.68;;;0.50;;
68229;SDS011;55048;52.220;5.160;2022-07-06T06:47:30;2.65;;;0.35;;
68229;SDS011;55048;52.220;5.160;2022-07-06T06:49:56;8.65;;;0.30;;
68229;SDS011;55048;52.220;5.160;2022-07-06T06:52:21;4.95;;;0.55;;
68229;SDS011;55048;52.220;5.160;2022-07-06T06:54:46;3.00;;;0.40;;
68229;SDS011;55048;52.220;5.160;2022-07-06T06:57:12;5.00;;;0.40;;
68229;SDS011;55048;52.220;5.160;2022-07-06T06:59:37;2.30;;;0.30;;
68229;SDS011;55048;52.220;5.160;2022-07-06T07:02:02;3.50;;;0.28;;
68229;SDS011;55048;52.220;5.160;2022-07-06T07:04:28;2.67;;;0.20;;
68229;SDS011;55048;52.220;5.160;2022-07-06T07:06:54;3.20;;;0.20;;
68229;SDS011;55048;52.220;5.160;2022-07-06T07:09:19;3.90;;;0.22;;
68229;SDS011;55048;52.220;5.160;2022-07-06T07:11:45;5.07;;;0.30;;
68229;SDS011;55048;52.220;5.160;2022-07-06T07:14:10;2.55;;;0.57;;
68229;SDS011;55048;52.220;5.160;2022-07-06T07:16:36;3.17;;;0.30;;
68229;SDS011;55048;52.220;5.160;2022-07-06T07:19:01;4.97;;;0.30;;
68229;SDS011;55048;52.220;5.160;2022-07-06T07:21:26;3.03;;;0.20;;
68229;SDS011;55048;52.220;5.160;2022-07-06T07:23:51;2.08;;;0.30;;
68229;SDS011;55048;52.220;5.160;2022-07-06T07:26:17;3.80;;;0.30;;
68229;SDS011;55048;52.220;5.160;2022-07-06T07:28:42;1.95;;;0.30;;
68229;SDS011;55048;52.220;5.160;2022-07-06T07:31:08;4.72;;;0.45;;
68229;SDS011;55048;52.220;5.160;2022-07-06T07:33:33;2.97;;;0.30;;
68229;SDS011;55048;52.220;5.160;2022-07-06T07:35:59;4.60;;;0.30;;
68229;SDS011;55048;52.220;5.160;2022-07-06T07:38:25;2.17;;;0.20;;
68229;SDS011;55048;52.220;5.160;2022-07-06T07:40:50;2.95;;;0.20;;
68229;SDS011;55048;52.220;5.160;2022-07-06T07:43:15;2.97;;;0.40;;
68229;SDS011;55048;52.220;5.160;2022-07-06T07:45:41;2.38;;;0.30;;
68229;SDS011;55048;52.220;5.160;2022-07-06T07:48:06;5.43;;;0.28;;
68229;SDS011;55048;52.220;5.160;2022-07-06T07:50:31;2.38;;;0.32;;
68229;SDS011;55048;52.220;5.160;2022-07-06T07:52:57;2.63;;;0.25;;
68229;SDS011;55048;52.220;5.160;2022-07-06T07:55:22;5.82;;;0.40;;
68229;SDS011;55048;52.220;5.160;2022-07-06T07:57:47;1.67;;;0.22;;
68229;SDS011;55048;52.220;5.160;2022-07-06T08:00:13;2.83;;;0.30;;
68229;SDS011;55048;52.220;5.160;2022-07-06T08:02:38;2.17;;;0.30;;
68229;SDS011;55048;52.220;5.160;2022-07-06T08:05:04;2.40;;;0.20;;
68229;SDS011;55048;52.220;5.160;2022-07-06T08:07:29;4.97;;;0.40;;
68229;SDS011;55048;52.220;5.160;2022-07-06T08:09:55;2.22;;;0.30;;
68229;SDS011;55048;52.220;5.160;2022-07-06T08:12:20;4.78;;;0.20;;
68229;SDS011;55048;52.220;5.160;2022-07-06T08:14:45;3.08;;;0.32;;
68229;SDS011;55048;52.220;5.160;2022-07-06T08:17:11;0.47;;;0.10;;
68229;SDS011;55048;52.220;5.160;2022-07-06T08:19:36;1.85;;;0.40;;
68229;SDS011;55048;52.220;5.160;2022-07-06T08:22:02;5.97;;;0.30;;
68229;SDS011;55048;52.220;5.160;2022-07-06T08:24:32;3.05;;;0.20;;
68229;SDS011;55048;52.220;5.160;2022-07-06T08:26:58;0.47;;;0.20;;
68229;SDS011;55048;52.220;5.160;2022-07-06T08:29:23;2.08;;;0.30;;
68229;SDS011;55048;52.220;5.160;2022-07-06T08:31:49;0.88;;;0.10;;
68229;SDS011;55048;52.220;5.160;2022-07-06T08:34:14;3.03;;;0.20;;
68229;SDS011;55048;52.220;5.160;2022-07-06T08:36:39;1.25;;;0.20;;
68229;SDS011;55048;52.220;5.160;2022-07-06T08:39:05;3.17;;;0.20;;
68229;SDS011;55048;52.220;5.160;2022-07-06T08:41:30;0.45;;;0.15;;
68229;SDS011;55048;52.220;5.160;2022-07-06T08:43:56;1.83;;;0.20;;
68229;SDS011;55048;52.220;5.160;2022-07-06T08:46:21;1.65;;;0.20;;
68229;SDS011;55048;52.220;5.160;2022-07-06T08:48:47;1.10;;;0.20;;
68229;SDS011;55048;52.220;5.160;2022-07-06T08:51:13;0.60;;;0.10;;
68229;SDS011;55048;52.220;5.160;2022-07-06T08:53:42;0.65;;;0.20;;
68229;SDS011;55048;52.220;5.160;2022-07-06T08:56:09;1.20;;;0.10;;
68229;SDS011;55048;52.220;5.160;2022-07-06T08:58:34;2.38;;;0.10;;
68229;SDS011;55048;52.220;5.160;2022-07-06T09:01:00;0.50;;;0.10;;
68229;SDS011;55048;52.220;5.160;2022-07-06T09:03:26;2.20;;;0.22;;
68229;SDS011;55048;52.220;5.160;2022-07-06T09:05:52;1.17;;;0.10;;
68229;SDS011;55048;52.220;5.160;2022-07-06T09:08:20;2.45;;;0.10;;
68229;SDS011;55048;52.220;5.160;2022-07-06T09:10:46;2.60;;;0.10;;
68229;SDS011;55048;52.220;5.160;2022-07-06T09:13:11;0.63;;;0.13;;
68229;SDS011;55048;52.220;5.160;2022-07-06T09:15:37;6.78;;;0.22;;
68229;SDS011;55048;52.220;5.160;2022-07-06T09:18:06;0.77;;;0.10;;
68229;SDS011;55048;52.220;5.160;2022-07-06T09:20:33;1.08;;;0.10;;
68229;SDS011;55048;52.220;5.160;2022-07-06T09:22:59;1.02;;;0.10;;
68229;SDS011;55048;52.220;5.160;2022-07-06T09:25:26;1.60;;;0.20;;
68229;SDS011;55048;52.220;5.160;2022-07-06T09:27:52;5.28;;;0.30;;
68229;SDS011;55048;52.220;5.160;2022-07-06T09:30:21;0.68;;;0.10;;
68229;SDS011;55048;52.220;5.160;2022-07-06T09:32:49;0.28;;;0.10;;
68229;SDS011;55048;52.220;5.160;2022-07-06T09:35:22;1.40;;;0.10;;
68229;SDS011;55048;52.220;5.160;2022-07-06T09:37:59;1.95;;;0.10;;
68229;SDS011;55048;52.220;5.160;2022-07-06T09:40:34;0.80;;;0.10;;
68229;SDS011;55048;52.220;5.160;2022-07-06T09:43:08;1.30;;;0.10;;
68229;SDS011;55048;52.220;5.160;2022-07-06T09:45:37;1.95;;;0.20;;
68229;SDS011;55048;52.220;5.160;2022-07-06T09:48:08;1.88;;;0.10;;
68229;SDS011;55048;52.220;5.160;2022-07-06T09:50:41;4.03;;;0.17;;
68229;SDS011;55048;52.220;5.160;2022-07-06T09:53:10;2.17;;;0.10;;
68229;SDS011;55048;52.220;5.160;2022-07-06T09:55:35;1.00;;;0.10;;
68229;SDS011;55048;52.220;5.160;2022-07-06T09:58:01;2.22;;;0.20;;
68229;SDS011;55048;52.220;5.160;2022-07-06T10:00:27;0.73;;;0.20;;
68229;SDS011;55048;52.220;5.160;2022-07-06T10:02:53;0.20;;;0.10;;
68229;SDS011;55048;52.220;5.160;2022-07-06T10:05:19;2.95;;;0.17;;
68229;SDS011;55048;52.220;5.160;2022-07-06T10:07:51;2.90;;;0.20;;
68229;SDS011;55048;52.220;5.160;2022-07-06T10:10:20;2.33;;;0.10;;
68229;SDS011;55048;52.220;5.160;2022-07-06T10:12:49;0.23;;;0.10;;
68229;SDS011;55048;52.220;5.160;2022-07-06T10:15:16;1.70;;;0.10;;
68229;SDS011;55048;52.220;5.160;2022-07-06T10:17:42;1.38;;;0.00;;
68229;SDS011;55048;52.220;5.160;2022-07-06T10:20:11;0.50;;;0.10;;
68229;SDS011;55048;52.220;5.160;2022-07-06T10:22:36;3.38;;;0.20;;
68229;SDS011;55048;52.220;5.160;2022-07-06T10:25:04;1.38;;;0.10;;
68229;SDS011;55048;52.220;5.160;2022-07-06T10:27:31;0.95;;;0.20;;
68229;SDS011;55048;52.220;5.160;2022-07-06T10:29:57;1.48;;;0.10;;
68229;SDS011;55048;52.220;5.160;2022-07-06T10:32:23;1.20;;;0.10;;
68229;SDS011;55048;52.220;5.160;2022-07-06T10:34:50;1.35;;;0.08;;
68229;SDS011;55048;52.220;5.160;2022-07-06T10:37:25;1.95;;;0.30;;
68229;SDS011;55048;52.220;5.160;2022-07-06T10:39:51;1.95;;;0.15;;
68229;SDS011;55048;52.220;5.160;2022-07-06T10:45:15;0.93;;;0.10;;
68229;SDS011;55048;52.220;5.160;2022-07-06T10:47:46;0.30;;;0.10;;
68229;SDS011;55048;52.220;5.160;2022-07-06T10:50:11;0.70;;;0.10;;
68229;SDS011;55048;52.220;5.160;2022-07-06T10:52:51;2.65;;;0.20;;
68229;SDS011;55048;52.220;5.160;2022-07-06T10:55:50;1.75;;;0.10;;
68229;SDS011;55048;52.220;5.160;2022-07-06T10:58:10;4.95;;;0.20;;
68229;SDS011;55048;52.220;5.160;2022-07-06T11:00:48;3.75;;;0.20;;
68229;SDS011;55048;52.220;5.160;2022-07-06T11:06:05;1.85;;;0.20;;
68229;SDS011;55048;52.220;5.160;2022-07-06T11:11:18;2.13;;;0.20;;
68229;SDS011;55048;52.220;5.160;2022-07-06T11:13:49;0.68;;;0.10;;
68229;SDS011;55048;52.220;5.160;2022-07-06T11:16:17;1.83;;;0.20;;
68229;SDS011;55048;52.220;5.160;2022-07-06T11:18:49;0.73;;;0.20;;
68229;SDS011;55048;52.220;5.160;2022-07-06T11:21:23;2.45;;;0.20;;
68229;SDS011;55048;52.220;5.160;2022-07-06T11:23:57;0.75;;;0.10;;
68229;SDS011;55048;52.220;5.160;2022-07-06T11:26:23;1.05;;;0.20;;
68229;SDS011;55048;52.220;5.160;2022-07-06T11:28:49;10.07;;;0.20;;
68229;SDS011;55048;52.220;5.160;2022-07-06T11:31:16;0.22;;;0.10;;
68229;SDS011;55048;52.220;5.160;2022-07-06T11:33:44;1.25;;;0.10;;
68229;SDS011;55048;52.220;5.160;2022-07-06T11:36:15;4.10;;;0.20;;
68229;SDS011;55048;52.220;5.160;2022-07-06T11:38:42;1.40;;;0.10;;
68229;SDS011;55048;52.220;5.160;2022-07-06T11:41:08;2.95;;;0.30;;
68229;SDS011;55048;52.220;5.160;2022-07-06T11:43:33;1.50;;;0.20;;
68229;SDS011;55048;52.220;5.160;2022-07-06T11:45:59;0.80;;;0.20;;
68229;SDS011;55048;52.220;5.160;2022-07-06T11:48:24;1.08;;;0.13;;
68229;SDS011;55048;52.220;5.160;2022-07-06T11:51:00;2.53;;;0.30;;
68229;SDS011;55048;52.220;5.160;2022-07-06T11:53:27;1.55;;;0.28;;
68229;SDS011;55048;52.220;5.160;2022-07-06T11:55:53;1.35;;;0.20;;
68229;SDS011;55048;52.220;5.160;2022-07-06T11:58:22;0.93;;;0.15;;
68229;SDS011;55048;52.220;5.160;2022-07-06T12:01:07;2.28;;;0.20;;
68229;SDS011;55048;52.220;5.160;2022-07-06T12:03:35;1.30;;;0.20;;
68229;SDS011;55048;52.220;5.160;2022-07-06T12:06:05;1.08;;;0.20;;
68229;SDS011;55048;52.220;5.160;2022-07-06T12:08:32;2.25;;;0.20;;
68229;SDS011;55048;52.220;5.160;2022-07-06T12:11:05;3.28;;;0.28;;
68229;SDS011;55048;52.220;5.160;2022-07-06T12:13:35;1.08;;;0.20;;
68229;SDS011;55048;52.220;5.160;2022-07-06T12:16:13;2.05;;;0.17;;
68229;SDS011;55048;52.220;5.160;2022-07-06T12:18:41;4.65;;;0.40;;
68229;SDS011;55048;52.220;5.160;2022-07-06T12:21:12;2.67;;;0.20;;
68229;SDS011;55048;52.220;5.160;2022-07-06T12:23:46;2.47;;;0.20;;
68229;SDS011;55048;52.220;5.160;2022-07-06T12:26:19;1.20;;;0.20;;
68229;SDS011;55048;52.220;5.160;2022-07-06T12:28:58;5.43;;;0.30;;
68229;SDS011;55048;52.220;5.160;2022-07-06T12:31:39;1.20;;;0.20;;
68229;SDS011;55048;52.220;5.160;2022-07-06T12:34:13;3.75;;;0.30;;
68229;SDS011;55048;52.220;5.160;2022-07-06T12:39:17;1.80;;;0.10;;
68229;SDS011;55048;52.220;5.160;2022-07-06T12:41:45;2.90;;;0.30;;
68229;SDS011;55048;52.220;5.160;2022-07-06T12:44:22;3.25;;;0.30;;
68229;SDS011;55048;52.220;5.160;2022-07-06T12:46:48;1.15;;;0.20;;
68229;SDS011;55048;52.220;5.160;2022-07-06T12:49:19;4.28;;;0.68;;
68229;SDS011;55048;52.220;5.160;2022-07-06T12:51:57;7.53;;;0.30;;
68229;SDS011;55048;52.220;5.160;2022-07-06T12:54:32;3.05;;;0.30;;
68229;SDS011;55048;52.220;5.160;2022-07-06T12:57:03;6.13;;;0.30;;
68229;SDS011;55048;52.220;5.160;2022-07-06T12:59:31;2.40;;;0.30;;
68229;SDS011;55048;52.220;5.160;2022-07-06T13:01:58;4.20;;;0.28;;
68229;SDS011;55048;52.220;5.160;2022-07-06T13:04:24;3.90;;;0.43;;
68229;SDS011;55048;52.220;5.160;2022-07-06T13:06:51;1.17;;;0.20;;
68229;SDS011;55048;52.220;5.160;2022-07-06T13:09:16;2.25;;;0.20;;
68229;SDS011;55048;52.220;5.160;2022-07-06T13:11:42;2.15;;;0.17;;
68229;SDS011;55048;52.220;5.160;2022-07-06T13:14:08;1.20;;;0.22;;
68229;SDS011;55048;52.220;5.160;2022-07-06T13:16:34;2.05;;;0.30;;
68229;SDS011;55048;52.220;5.160;2022-07-06T13:19:00;5.88;;;0.30;;
68229;SDS011;55048;52.220;5.160;2022-07-06T13:21:28;1.77;;;0.30;;
68229;SDS011;55048;52.220;5.160;2022-07-06T13:23:53;2.30;;;0.30;;
68229;SDS011;55048;52.220;5.160;2022-07-06T13:26:19;2.50;;;0.20;;
68229;SDS011;55048;52.220;5.160;2022-07-06T13:28:44;2.28;;;0.38;;
68229;SDS011;55048;52.220;5.160;2022-07-06T13:31:09;1.77;;;0.30;;
68229;SDS011;55048;52.220;5.160;2022-07-06T13:33:36;1.42;;;0.30;;
68229;SDS011;55048;52.220;5.160;2022-07-06T13:36:01;4.57;;;0.40;;
68229;SDS011;55048;52.220;5.160;2022-07-06T13:38:27;1.13;;;0.20;;
68229;SDS011;55048;52.220;5.160;2022-07-06T13:40:53;1.30;;;0.30;;
68229;SDS011;55048;52.220;5.160;2022-07-06T13:43:19;8.43;;;0.68;;
68229;SDS011;55048;52.220;5.160;2022-07-06T13:45:45;0.68;;;0.20;;
68229;SDS011;55048;52.220;5.160;2022-07-06T13:48:13;1.10;;;0.30;;
68229;SDS011;55048;52.220;5.160;2022-07-06T13:50:39;2.00;;;0.30;;
68229;SDS011;55048;52.220;5.160;2022-07-06T13:53:05;5.93;;;0.30;;
68229;SDS011;55048;52.220;5.160;2022-07-06T13:55:31;3.67;;;0.40;;
68229;SDS011;55048;52.220;5.160;2022-07-06T13:57:57;6.90;;;0.30;;
68229;SDS011;55048;52.220;5.160;2022-07-06T14:00:22;2.05;;;0.20;;
68229;SDS011;55048;52.220;5.160;2022-07-06T14:02:48;4.70;;;0.40;;
68229;SDS011;55048;52.220;5.160;2022-07-06T14:05:13;2.97;;;0.32;;
68229;SDS011;55048;52.220;5.160;2022-07-06T14:07:38;1.48;;;0.30;;
68229;SDS011;55048;52.220;5.160;2022-07-06T14:10:04;4.00;;;0.52;;
68229;SDS011;55048;52.220;5.160;2022-07-06T14:12:30;1.95;;;0.38;;
68229;SDS011;55048;52.220;5.160;2022-07-06T14:14:55;2.17;;;0.30;;
68229;SDS011;55048;52.220;5.160;2022-07-06T14:17:21;1.38;;;0.40;;
68229;SDS011;55048;52.220;5.160;2022-07-06T14:19:47;8.70;;;0.50;;
68229;SDS011;55048;52.220;5.160;2022-07-06T14:22:13;6.32;;;0.40;;
68229;SDS011;55048;52.220;5.160;2022-07-06T14:24:38;2.50;;;0.43;;
68229;SDS011;55048;52.220;5.160;2022-07-06T14:27:04;4.15;;;0.40;;
68229;SDS011;55048;52.220;5.160;2022-07-06T14:29:29;1.77;;;0.40;;
68229;SDS011;55048;52.220;5.160;2022-07-06T14:31:55;1.90;;;0.47;;
68229;SDS011;55048;52.220;5.160;2022-07-06T14:34:20;2.53;;;0.50;;
68229;SDS011;55048;52.220;5.160;2022-07-06T14:36:45;1.98;;;0.40;;
68229;SDS011;55048;52.220;5.160;2022-07-06T14:39:11;4.15;;;0.50;;
68229;SDS011;55048;52.220;5.160;2022-07-06T14:41:37;4.63;;;0.52;;
68229;SDS011;55048;52.220;5.160;2022-07-06T14:44:03;4.78;;;0.40;;
68229;SDS011;55048;52.220;5.160;2022-07-06T14:46:29;4.97;;;0.82;;
68229;SDS011;55048;52.220;5.160;2022-07-06T14:48:55;5.03;;;0.60;;
68229;SDS011;55048;52.220;5.160;2022-07-06T14:51:20;4.43;;;0.57;;
68229;SDS011;55048;52.220;5.160;2022-07-06T14:53:46;3.20;;;0.70;;
68229;SDS011;55048;52.220;5.160;2022-07-06T14:56:11;9.25;;;0.95;;
68229;SDS011;55048;52.220;5.160;2022-07-06T14:58:37;5.13;;;0.70;;
68229;SDS011;55048;52.220;5.160;2022-07-06T15:01:02;3.38;;;0.80;;
68229;SDS011;55048;52.220;5.160;2022-07-06T15:03:28;8.27;;;1.15;;